Kondopoga, Russia
Current Conditions -  °F | °C
As of 3:30 PM on Wednesday 22 Oct 2014 (Local Time) from ULPB Reporting Station
Few Clouds Few Clouds  
Wind Chill:   Ceiling: Unl
Heat Index: 19°   Visibility: 6mi
Dew Point: 10°   Wind: 9mph
Humidity: 68%   Direction: 40°NE
Pressure: 30.3"   Gusts: NA
Location:  62.2°N, 34.28°E
Report Text: ULPB 221230Z 04004MPS 9999 FEW016 M07/M12 Q1026 NOSIG RMKQFE765/1020 SC045
Loading
Personal Weather Stations






























Interactive Weather Map
Tropical Storm Tracking
New forecast layout! Learn more

10-Day Weather Forecast

Advertisements
Track Severe Weather on mobile